Quantico MCAF /Turner field
KNYG : now visible

Aeroporto :











RITROVATECI SU...

 
LOGIN :

Iscrizione | Disclaimer

   EN    FR    IT 

 









Sommario :    VFR   VFR Marginale   IFR   IFR Intensivo   IFR Molto Intensivo
Visibilità : 
Base nubi : 
>= 8 km
>= 3000ft
5 / 8 km
1000 / 3000 ft
1500m / 5 km
500 / 1000 ft
800 / 1500m
200 / 500 ft
< 800m
< 200 ft
Simboli :   Temporali  Nebbia  Neve Forte  Precipitazioni Forti  Vento > 20 kt






- Altitudine del aeroporto : 10 ft


KNYG - Quantico MCAF /Turner field

ULTIMO METAR :
  • 250656Z AUTO 10012KT 3SM +RA FEW015 BKN060 OVC075 10/09 A2993 RMK AO2 SLP137 P0027 T01000089

METARs OBSOLETI :
  • 250612Z AUTO 12008KT 3SM +RA SCT013 BKN031 OVC040 09/08 A2995 RMK AO2 P0006 T00940083
  • 250605Z AUTO 11009KT 2 1/2SM +RA FEW014 BKN040 OVC050 09/08 A2996 RMK AO2 VIS 2V3 P0004 T00940083
  • 250456Z AUTO 10011KT 6SM -RA SCT016 BKN036 OVC060 09/07 A3000 RMK AO2 SLP158 P0003 T00940072 401060011

TAF TAF KNYG
Valido dal 24 a 21 ore il 25 a 21 ore UTC


2421/2521 10008KT 9999 BKN015 OVC030 QNH3003INS
TEMPO 2421/2503 9000 RA BR OVC015
FM250400 14015G25KT 6000 RA BR OVC006 QNH2997INS
BECMG 2507/2509 16010KT 3200 +RA BR OVC004 QNH2978INS
TEMPO 2509/2514 16020G30KT 1600 +RA BR OVC002
FM251700 31012G20KT 9999 NSW BKN020 QNH2972INS T09/2415Z T13/2509Z



MetMap, La meteo Aeronautica in un colpo d'occhio ! - Copyright ORBIFLY Dicembre 2007 - Disclaimer

ORBIFLY MET'MAP TEAM :

Programmazione e sviluppo : Alexandra Zaïnal
Concezione : Baudouin d'Aumeries
Aiuto per la programmazione : Marc-Olivier Méhu
Supporto tecnico e logistico : Manuel Goepfert
Aiuto per la traduzione : Arnaldo La Scala

Contatto : metmap@orbifly.com




FONTI E CREDITI :

   NOAA       Earth
Advisory